Home   Weather   Oberstedten   Past weeks
Flag for Germany

Past Weather in Oberstedten, Hesse, Germany — September 2021

Currently: 55 °F. Passing clouds. (Weather station: Frankfurt-M-Flughafen Airport, Germany). See more current weather

September 2021 Weather in Oberstedten — Graph

°F

High & Low Weather Summary for September 2021

 TemperatureHumidityPressure
High82 °F (Sep 5, 2:50 pm)100% (Sep 1, 12:50 am)30.42 "Hg (Sep 1, 12:50 am)
Low41 °F (Sep 23, 5:50 am)34% (Sep 25, 5:20 pm)29.86 "Hg (Sep 15, 3:50 pm)
Average63 °F74%30.10 "Hg
* Reported Sep 1 12:20 am — Sep 30 11:50 pm, Oberstedten. Weather by CustomWeather, © 2022

Note: Actual official high and low records may vary slightly from our data, if they occured in-between our weather recording intervals... More about our weather records

Oberstedten Weather History for September 1, 2021

Scroll right to see more
 ConditionsComfort  
Time TempWeatherWind HumidityBarometerVisibility
12:20 am
Wed, Sep 1
54 °FClear.2 mph94%30.27 "Hg10 mi
12:50 am52 °FClear.2 mph100%30.27 "Hg10 mi
1:20 am52 °FClear.3 mph94%30.27 "Hg10 mi
1:50 am52 °FClear.3 mph94%30.27 "Hg10 mi
2:20 am50 °FClear.1 mph100%30.27 "Hg10 mi
2:50 am50 °FClear.2 mph100%30.27 "Hg10 mi
3:20 am50 °FClear.2 mph100%30.27 "Hg10 mi
3:50 am50 °FClear.1 mph94%30.30 "Hg10 mi
4:20 am50 °FClear.1 mph94%30.30 "Hg10 mi
4:50 am48 °FPassing clouds.1 mph100%30.30 "HgN/A
5:20 am48 °FPassing clouds.2 mph100%30.30 "HgN/A
5:50 am48 °FPassing clouds.1 mph100%30.30 "HgN/A
6:20 am48 °FPassing clouds.2 mph100%30.30 "HgN/A
6:50 am48 °FPassing clouds.1 mph100%30.30 "HgN/A
7:20 am50 °FPassing clouds.3 mph94%30.30 "HgN/A
7:50 am54 °FPassing clouds.3 mph94%30.33 "HgN/A
8:20 am57 °FPassing clouds.2 mph88%30.33 "HgN/A
8:50 am59 °FPassing clouds.3 mph82%30.33 "HgN/A
9:20 am63 °FPassing clouds.5 mph73%30.33 "HgN/A
9:50 am63 °FPassing clouds.8 mph73%30.33 "HgN/A
10:20 am63 °FScattered clouds.9 mph73%30.33 "HgN/A
10:50 am64 °FScattered clouds.9 mph68%30.36 "HgN/A
11:20 am66 °FPassing clouds.10 mph64%30.33 "HgN/A
11:50 am68 °FScattered clouds.9 mph60%30.36 "HgN/A
12:20 pm66 °FScattered clouds.9 mph64%30.33 "HgN/A
12:50 pm70 °FScattered clouds.8 mph57%30.33 "HgN/A
1:20 pm68 °FScattered clouds.8 mph60%30.33 "HgN/A
1:50 pm68 °FScattered clouds.9 mph60%30.33 "HgN/A
2:20 pm70 °FScattered clouds.9 mph57%30.33 "HgN/A
2:50 pm70 °FScattered clouds.8 mph53%30.33 "HgN/A
3:20 pm70 °FScattered clouds.7 mph53%30.33 "HgN/A
3:50 pm72 °FScattered clouds.7 mph47%30.30 "HgN/A
4:20 pm70 °FPassing clouds.9 mph53%30.30 "HgN/A
4:50 pm72 °FPassing clouds.6 mph50%30.30 "HgN/A
5:20 pm70 °FPassing clouds.7 mph53%30.30 "HgN/A
5:50 pm72 °FPassing clouds.5 mph50%30.30 "HgN/A
6:20 pm70 °FPassing clouds.8 mph50%30.27 "HgN/A
6:50 pm70 °FPassing clouds.9 mph53%30.30 "HgN/A
7:20 pm68 °FSunny.9 mph53%30.27 "Hg10 mi
7:50 pm68 °FSunny.10 mph53%30.30 "Hg10 mi
8:20 pm66 °FClear.7 mph56%30.30 "Hg10 mi
8:50 pm64 °FClear.8 mph64%30.30 "Hg10 mi
9:20 pm63 °FClear.8 mph68%30.30 "Hg10 mi
9:50 pm63 °FClear.9 mph68%30.30 "Hg10 mi
10:20 pm61 °FPassing clouds.7 mph72%30.33 "HgN/A
10:50 pm61 °FClear.8 mph72%30.33 "Hg10 mi
11:50 pm59 °FClear.7 mph77%30.33 "Hg10 mi
Weather by CustomWeather, © 2022

See weather overview